createdAt,value
2023-04-12T00:00:02.479Z,25.00
2023-04-12T00:01:02.497Z,25.00
2023-04-12T00:02:02.493Z,25.00
2023-04-12T00:03:02.524Z,21.78
2023-04-12T00:04:03.140Z,22.47
2023-04-12T00:05:02.630Z,97.94
2023-04-12T00:06:02.438Z,131.12
2023-04-12T00:07:02.432Z,138.08
2023-04-12T00:08:02.522Z,141.49
2023-04-12T00:09:02.471Z,140.01
2023-04-12T00:10:02.452Z,105.92
2023-04-12T00:11:02.444Z,104.47
2023-04-12T00:12:02.445Z,93.15
2023-04-12T00:13:02.426Z,47.45
2023-04-12T00:14:02.451Z,28.83
2023-04-12T00:15:02.472Z,26.95
2023-04-12T00:16:02.438Z,34.55
2023-04-12T00:17:02.418Z,8.37
2023-04-12T00:18:02.479Z,23.19
2023-04-12T00:19:02.358Z,33.37
2023-04-12T00:20:02.338Z,70.16
2023-04-12T00:21:02.394Z,93.23
2023-04-12T00:22:02.426Z,63.04
2023-04-12T00:23:02.388Z,97.52
2023-04-12T00:24:02.417Z,140.37
2023-04-12T00:25:02.417Z,147.91
2023-04-12T00:26:02.456Z,15.09
2023-04-12T00:27:02.439Z,0.00
2023-04-12T00:28:02.436Z,0.00
2023-04-12T00:29:02.443Z,0.00
2023-04-12T00:30:02.492Z,22.94
2023-04-12T00:31:02.502Z,53.89
2023-04-12T00:32:02.479Z,73.59
2023-04-12T00:33:02.557Z,38.61
2023-04-12T00:34:02.509Z,91.38
2023-04-12T00:35:02.525Z,88.31
2023-04-12T00:36:02.651Z,68.41
2023-04-12T00:37:02.562Z,41.22
2023-04-12T00:38:02.567Z,25.02
2023-04-12T00:39:02.604Z,33.09
2023-04-12T00:40:02.619Z,65.61
2023-04-12T00:41:02.643Z,117.71
2023-04-12T00:42:02.668Z,136.29
2023-04-12T00:43:02.692Z,131.74
2023-04-12T00:44:02.709Z,140.80
2023-04-12T00:45:02.736Z,163.67
2023-04-12T00:46:02.819Z,183.05
2023-04-12T00:47:02.849Z,219.59
2023-04-12T00:48:02.899Z,251.63
2023-04-12T00:49:02.885Z,254.02
2023-04-12T00:50:02.946Z,244.13
2023-04-12T00:51:03.000Z,252.77
2023-04-12T00:52:03.038Z,235.34
2023-04-12T00:53:03.069Z,217.89
2023-04-12T00:54:03.063Z,220.90
2023-04-12T00:55:03.079Z,228.07
2023-04-12T00:56:03.145Z,224.69
2023-04-12T00:57:03.205Z,232.78
2023-04-12T00:58:03.270Z,221.11
2023-04-12T00:59:03.334Z,168.25
2023-04-12T01:00:03.365Z,150.89
2023-04-12T01:01:03.434Z,151.88
2023-04-12T01:02:03.516Z,301.50
2023-04-12T01:03:03.647Z,386.11
2023-04-12T01:04:03.619Z,432.77
2023-04-12T01:05:03.609Z,462.91
2023-04-12T01:06:03.612Z,447.84
2023-04-12T01:07:03.642Z,405.08
2023-04-12T01:08:03.669Z,345.82
2023-04-12T01:09:03.697Z,333.66
2023-04-12T01:10:03.759Z,321.02
2023-04-12T01:11:03.884Z,301.67
2023-04-12T01:12:03.868Z,273.63
2023-04-12T01:13:03.928Z,254.26
2023-04-12T01:14:03.949Z,247.91
2023-04-12T01:15:03.996Z,238.67
2023-04-12T01:16:04.095Z,224.96
2023-04-12T01:17:04.050Z,220.66
2023-04-12T01:18:04.166Z,207.93
2023-04-12T01:19:04.103Z,201.70
2023-04-12T01:20:05.207Z,180.68
2023-04-12T01:21:04.165Z,163.38
2023-04-12T01:22:04.129Z,158.55
2023-04-12T01:23:04.131Z,160.97
2023-04-12T01:24:04.141Z,154.98
2023-04-12T01:25:04.128Z,156.11
2023-04-12T01:26:04.222Z,154.97
2023-04-12T01:27:04.136Z,163.77
2023-04-12T01:28:04.129Z,165.83
2023-04-12T01:29:04.128Z,173.45
2023-04-12T01:30:04.175Z,175.93
2023-04-12T01:31:04.188Z,184.41
2023-04-12T01:32:04.226Z,197.48
2023-04-12T01:33:04.149Z,206.00
2023-04-12T01:34:04.200Z,208.62
2023-04-12T01:35:04.098Z,203.94
2023-04-12T01:36:06.310Z,204.23
2023-04-12T01:37:04.134Z,204.24
2023-04-12T01:38:04.114Z,200.31
2023-04-12T01:39:04.108Z,197.58
2023-04-12T01:40:04.091Z,189.10
2023-04-12T01:41:04.083Z,183.87
2023-04-12T01:42:04.375Z,174.93
2023-04-12T01:43:04.066Z,167.89
2023-04-12T01:44:04.087Z,147.48
2023-04-12T01:45:04.057Z,132.83
2023-04-12T01:46:04.142Z,129.37
2023-04-12T01:47:04.047Z,116.10
2023-04-12T01:48:04.082Z,112.68
2023-04-12T01:49:04.058Z,117.85
2023-04-12T01:50:04.066Z,121.12
2023-04-12T01:51:04.106Z,117.12
2023-04-12T01:52:04.034Z,116.35
2023-04-12T01:53:04.037Z,152.48
2023-04-12T01:54:04.061Z,168.22
2023-04-12T01:55:04.031Z,174.72
2023-04-12T01:56:04.057Z,163.57
2023-04-12T01:57:04.026Z,146.96
2023-04-12T01:58:04.020Z,130.03
2023-04-12T01:59:04.030Z,115.98
2023-04-12T02:00:04.007Z,94.36
2023-04-12T02:01:04.035Z,67.54
2023-04-12T02:02:04.083Z,53.15
2023-04-12T02:03:04.379Z,41.45
2023-04-12T02:04:04.065Z,42.01
2023-04-12T02:05:03.988Z,35.85
2023-04-12T02:06:04.031Z,34.40
2023-04-12T02:07:03.961Z,29.49
2023-04-12T02:08:03.967Z,20.13
2023-04-12T02:09:03.958Z,19.86
2023-04-12T02:10:03.979Z,18.76
2023-04-12T02:11:03.990Z,15.41
2023-04-12T02:12:03.934Z,17.58
2023-04-12T02:13:03.932Z,25.00
2023-04-12T02:14:03.923Z,25.17
2023-04-12T02:15:03.914Z,25.00
2023-04-12T02:16:03.907Z,28.99
2023-04-12T02:17:03.921Z,34.27
2023-04-12T02:18:03.947Z,43.63
2023-04-12T02:19:03.873Z,53.39
2023-04-12T02:20:03.881Z,71.37
2023-04-12T02:21:03.885Z,82.81
2023-04-12T02:22:03.893Z,91.59
2023-04-12T02:23:03.850Z,102.44
2023-04-12T02:24:03.835Z,113.18
2023-04-12T02:25:03.837Z,115.63
2023-04-12T02:26:03.809Z,116.03
2023-04-12T02:27:03.836Z,121.31
2023-04-12T02:28:03.781Z,122.24
2023-04-12T02:29:03.783Z,129.10
2023-04-12T02:30:03.776Z,132.59
2023-04-12T02:31:03.823Z,138.30
2023-04-12T02:32:03.792Z,141.39
2023-04-12T02:33:04.897Z,146.22
2023-04-12T02:34:03.788Z,153.22
2023-04-12T02:35:03.782Z,159.36
2023-04-12T02:36:03.812Z,159.33
2023-04-12T02:37:03.781Z,167.16
2023-04-12T02:38:03.831Z,173.56
2023-04-12T02:39:03.823Z,176.65
2023-04-12T02:40:04.852Z,189.16
2023-04-12T02:41:03.860Z,201.60
2023-04-12T02:42:03.877Z,219.47
2023-04-12T02:43:03.894Z,233.38
2023-04-12T02:44:03.926Z,244.38
2023-04-12T02:45:03.942Z,251.85
2023-04-12T02:46:04.050Z,255.57
2023-04-12T02:47:03.988Z,257.94
2023-04-12T02:48:04.073Z,257.06
2023-04-12T02:49:04.017Z,254.39
2023-04-12T02:50:04.024Z,248.28
2023-04-12T02:51:04.068Z,246.11
2023-04-12T02:52:04.056Z,246.37
2023-04-12T02:53:04.057Z,247.60
2023-04-12T02:54:04.086Z,249.99
2023-04-12T02:55:04.053Z,250.00
2023-04-12T02:56:06.203Z,250.63
2023-04-12T02:57:04.049Z,248.10
2023-04-12T02:58:04.040Z,245.73
2023-04-12T02:59:04.031Z,246.77
2023-04-12T03:00:04.006Z,250.00
2023-04-12T03:01:04.039Z,250.15
2023-04-12T03:02:04.395Z,250.00
2023-04-12T03:03:04.101Z,248.79
2023-04-12T03:04:04.087Z,250.00
2023-04-12T03:05:03.943Z,247.42
2023-04-12T03:06:03.944Z,240.57
2023-04-12T03:07:03.935Z,229.82
2023-04-12T03:08:03.927Z,205.46
2023-04-12T03:09:03.922Z,185.22
2023-04-12T03:10:03.932Z,179.85
2023-04-12T03:11:03.920Z,177.94
2023-04-12T03:12:03.923Z,179.75
2023-04-12T03:13:03.897Z,177.66
2023-04-12T03:14:03.890Z,187.06
2023-04-12T03:15:03.881Z,191.77
2023-04-12T03:16:03.905Z,197.20
2023-04-12T03:17:03.875Z,204.76
2023-04-12T03:18:03.880Z,212.98
2023-04-12T03:19:03.850Z,218.20
2023-04-12T03:20:04.763Z,225.75
2023-04-12T03:21:03.877Z,234.32
2023-04-12T03:22:03.850Z,243.11
2023-04-12T03:23:03.843Z,250.44
2023-04-12T03:24:03.830Z,250.93
2023-04-12T03:25:03.827Z,250.00
2023-04-12T03:26:03.853Z,249.75
2023-04-12T03:27:03.823Z,249.83
2023-04-12T03:28:03.904Z,249.90
2023-04-12T03:29:03.894Z,249.93
2023-04-12T03:30:03.973Z,250.00
2023-04-12T03:31:03.979Z,250.07
2023-04-12T03:32:03.980Z,249.98
2023-04-12T03:33:04.032Z,249.29
2023-04-12T03:34:03.976Z,250.00
2023-04-12T03:35:03.983Z,249.80
2023-04-12T03:36:04.010Z,248.83
2023-04-12T03:37:04.059Z,249.71
2023-04-12T03:38:04.013Z,248.43
2023-04-12T03:39:04.029Z,246.50
2023-04-12T03:40:04.084Z,247.58
2023-04-12T03:41:04.111Z,247.23
2023-04-12T03:42:04.144Z,247.13
2023-04-12T03:43:04.130Z,246.03
2023-04-12T03:44:04.148Z,241.18
2023-04-12T03:45:04.177Z,238.81
2023-04-12T03:46:04.192Z,236.29
2023-04-12T03:47:04.178Z,236.12
2023-04-12T03:48:04.223Z,235.52
2023-04-12T03:49:04.176Z,232.60
2023-04-12T03:51:03.180Z,228.68
2023-04-12T03:52:04.217Z,229.72
2023-04-12T03:53:04.161Z,230.13
2023-04-12T03:54:04.155Z,232.53
2023-04-12T03:55:04.136Z,234.85
2023-04-12T03:56:04.140Z,233.36
2023-04-12T03:57:04.154Z,229.65
2023-04-12T03:58:04.237Z,223.38
2023-04-12T03:59:04.111Z,222.25
2023-04-12T04:00:04.084Z,222.96
2023-04-12T04:01:04.079Z,218.86
2023-04-12T04:02:04.216Z,211.17
2023-04-12T04:03:04.089Z,204.59
2023-04-12T04:04:04.423Z,200.85
2023-04-12T04:05:04.143Z,192.77
2023-04-12T04:06:04.017Z,188.88
2023-04-12T04:07:04.006Z,188.94
2023-04-12T04:08:03.984Z,188.27
2023-04-12T04:09:03.972Z,189.15
2023-04-12T04:10:03.976Z,181.66
2023-04-12T04:11:03.946Z,175.47
2023-04-12T04:12:03.944Z,172.25
2023-04-12T04:13:03.931Z,168.77
2023-04-12T04:14:03.927Z,163.59
2023-04-12T04:15:03.878Z,159.25
2023-04-12T04:16:03.914Z,157.23
2023-04-12T04:17:03.850Z,152.21
2023-04-12T04:18:03.882Z,160.30
2023-04-12T04:19:03.825Z,196.65
2023-04-12T04:20:03.814Z,216.08
2023-04-12T04:21:03.814Z,228.98
2023-04-12T04:22:03.823Z,237.99
2023-04-12T04:23:03.786Z,251.56
2023-04-12T04:24:03.807Z,252.82
2023-04-12T04:25:03.810Z,257.23
2023-04-12T04:26:03.796Z,255.85
2023-04-12T04:27:03.808Z,250.00
2023-04-12T04:28:03.834Z,246.41
2023-04-12T04:29:03.811Z,242.17
2023-04-12T04:30:03.840Z,245.82
2023-04-12T04:31:03.826Z,247.73
2023-04-12T04:32:03.970Z,250.00
2023-04-12T04:33:03.943Z,248.00
2023-04-12T04:34:03.846Z,243.20
2023-04-12T04:35:03.849Z,243.11
2023-04-12T04:36:03.909Z,250.79
2023-04-12T04:37:03.852Z,253.14
2023-04-12T04:38:03.843Z,250.00
2023-04-12T04:39:03.878Z,249.66
2023-04-12T04:40:03.879Z,249.60
2023-04-12T04:41:03.938Z,249.95
2023-04-12T04:42:03.970Z,250.00
2023-04-12T04:43:04.735Z,250.23
2023-04-12T04:44:04.005Z,249.94
2023-04-12T04:45:03.997Z,250.00
2023-04-12T04:46:04.060Z,249.86
2023-04-12T04:47:03.970Z,249.67
2023-04-12T04:48:04.053Z,250.00
2023-04-12T04:49:03.962Z,248.20
2023-04-12T04:50:03.970Z,248.67
2023-04-12T04:51:04.643Z,249.29
2023-04-12T04:52:03.953Z,248.43
2023-04-12T04:53:03.935Z,245.88
2023-04-12T04:54:03.942Z,243.60
2023-04-12T04:55:06.508Z,242.39
2023-04-12T04:56:03.928Z,242.22
2023-04-12T04:57:03.923Z,239.89
2023-04-12T04:58:03.927Z,238.28
2023-04-12T04:59:03.921Z,235.00
2023-04-12T05:00:03.913Z,233.88
2023-04-12T05:01:03.943Z,231.24
2023-04-12T05:02:03.980Z,229.68
2023-04-12T05:03:03.941Z,232.33
2023-04-12T05:04:03.987Z,230.52
2023-04-12T05:05:03.897Z,235.65
2023-04-12T05:06:03.855Z,228.61
2023-04-12T05:07:03.849Z,226.13
2023-04-12T05:08:03.837Z,223.76
2023-04-12T05:09:03.819Z,226.98
2023-04-12T05:10:03.799Z,236.36
2023-04-12T05:11:03.794Z,245.28
2023-04-12T05:12:03.782Z,250.06
2023-04-12T05:13:03.771Z,249.86
2023-04-12T05:14:03.734Z,250.00
2023-04-12T05:16:02.701Z,250.12
2023-04-12T05:17:03.755Z,250.01
2023-04-12T05:18:03.865Z,246.42
2023-04-12T05:19:03.656Z,245.31
2023-04-12T05:20:03.651Z,244.16
2023-04-12T05:21:03.626Z,244.27
2023-04-12T05:22:03.609Z,244.23
2023-04-12T05:23:03.607Z,243.34
2023-04-12T05:24:03.606Z,241.87
2023-04-12T05:25:03.590Z,242.35
2023-04-12T05:26:03.552Z,238.74
2023-04-12T05:27:03.542Z,237.60
2023-04-12T05:28:03.532Z,237.30
2023-04-12T05:29:03.511Z,238.06
2023-04-12T05:30:03.519Z,238.73
2023-04-12T05:31:03.554Z,237.93
2023-04-12T05:32:03.510Z,236.96
2023-04-12T05:33:03.549Z,235.92
2023-04-12T05:34:03.484Z,235.51
2023-04-12T05:35:03.423Z,235.74
2023-04-12T05:36:03.495Z,235.60
2023-04-12T05:37:03.845Z,235.76
2023-04-12T05:38:03.841Z,236.78
2023-04-12T05:39:03.368Z,236.70
2023-04-12T05:40:03.310Z,236.35
2023-04-12T05:41:03.290Z,236.03
2023-04-12T05:42:03.267Z,236.59
2023-04-12T05:43:03.365Z,236.85
2023-04-12T05:44:03.218Z,236.54
2023-04-12T05:45:03.324Z,237.47
2023-04-12T05:46:03.344Z,237.17
2023-04-12T05:47:03.218Z,237.54
2023-04-12T05:48:03.430Z,238.85
2023-04-12T05:49:03.110Z,238.01
2023-04-12T05:50:05.219Z,237.10
2023-04-12T05:51:03.062Z,237.05
2023-04-12T05:52:03.385Z,237.24
2023-04-12T05:53:03.761Z,235.80
2023-04-12T05:54:01.994Z,236.23
2023-04-12T05:55:04.408Z,234.37
2023-04-12T05:56:02.920Z,233.93
2023-04-12T05:57:03.365Z,235.51
2023-04-12T05:58:02.895Z,236.60
2023-04-12T05:59:02.865Z,236.67
2023-04-12T06:00:02.856Z,236.54
2023-04-12T06:01:02.839Z,239.09
2023-04-12T06:02:02.902Z,239.73
2023-04-12T06:03:03.540Z,239.18
2023-04-12T06:04:02.900Z,237.80
2023-04-12T06:05:02.979Z,237.90
2023-04-12T06:06:02.734Z,237.72
2023-04-12T06:07:02.661Z,235.21
2023-04-12T06:08:02.862Z,234.89
2023-04-12T06:09:02.861Z,231.15
2023-04-12T06:10:02.652Z,228.84
2023-04-12T06:11:02.565Z,233.04
2023-04-12T06:12:02.528Z,231.29
2023-04-12T06:13:02.519Z,228.72
2023-04-12T06:14:02.841Z,226.08
2023-04-12T06:15:02.466Z,226.62
2023-04-12T06:16:02.465Z,227.07
2023-04-12T06:17:02.471Z,227.53
2023-04-12T06:18:02.781Z,229.52
2023-04-12T06:19:02.842Z,230.38
2023-04-12T06:20:02.503Z,220.45
2023-04-12T06:21:02.854Z,214.87
2023-04-12T06:22:03.001Z,208.89
2023-04-12T06:23:02.544Z,200.12
2023-04-12T06:24:02.832Z,198.01
2023-04-12T06:25:02.568Z,193.07
2023-04-12T06:26:02.582Z,192.56
2023-04-12T06:27:02.554Z,188.38
2023-04-12T06:28:03.135Z,181.77
2023-04-12T06:29:02.527Z,181.16
2023-04-12T06:30:02.499Z,178.46
2023-04-12T06:31:02.508Z,179.78
2023-04-12T06:32:02.858Z,176.31
2023-04-12T06:33:02.573Z,175.66
2023-04-12T06:34:02.477Z,172.19
2023-04-12T06:35:02.430Z,168.78
2023-04-12T06:36:02.787Z,146.46
2023-04-12T06:37:03.127Z,140.85
2023-04-12T06:38:02.664Z,136.64
2023-04-12T06:39:04.139Z,135.17
2023-04-12T06:40:02.443Z,141.78
2023-04-12T06:41:02.427Z,150.24
2023-04-12T06:42:02.266Z,157.33
2023-04-12T06:43:02.240Z,164.30
2023-04-12T06:44:02.329Z,172.82
2023-04-12T06:45:02.194Z,179.39
2023-04-12T06:46:02.107Z,185.27
2023-04-12T06:47:02.516Z,191.36
2023-04-12T06:48:02.099Z,195.45
2023-04-12T06:49:02.349Z,201.36
2023-04-12T06:50:02.188Z,204.33
2023-04-12T06:51:01.965Z,209.52
2023-04-12T06:52:01.960Z,215.20
2023-04-12T06:53:01.869Z,217.52
2023-04-12T06:54:01.860Z,219.07
2023-04-12T06:55:01.809Z,223.27
2023-04-12T06:56:01.738Z,230.38
2023-04-12T06:57:01.715Z,232.27
2023-04-12T06:58:01.884Z,233.01
2023-04-12T06:59:01.714Z,237.73
2023-04-12T07:00:01.651Z,238.04
2023-04-12T07:01:01.766Z,241.74
2023-04-12T07:02:01.700Z,245.16
2023-04-12T07:03:02.029Z,248.50
2023-04-12T07:04:01.546Z,247.04
2023-04-12T07:05:01.403Z,246.85
2023-04-12T07:06:07.623Z,248.35
2023-04-12T07:07:01.389Z,248.46
2023-04-12T07:08:01.390Z,249.19
2023-04-12T07:09:01.359Z,251.32
2023-04-12T07:10:01.352Z,254.06
2023-04-12T07:11:08.941Z,256.21
2023-04-12T07:12:01.814Z,248.55
2023-04-12T07:13:01.396Z,248.60
2023-04-12T07:14:01.897Z,249.40
2023-04-12T07:15:01.168Z,252.07
2023-04-12T07:16:01.392Z,257.08
2023-04-12T07:17:01.353Z,261.33
2023-04-12T07:18:02.187Z,257.70
2023-04-12T07:19:01.332Z,257.74
2023-04-12T07:20:01.522Z,256.76
2023-04-12T07:21:01.164Z,249.44
2023-04-12T07:22:00.833Z,248.87
2023-04-12T07:23:00.776Z,245.85
2023-04-12T07:24:05.997Z,250.17
2023-04-12T07:25:01.811Z,250.20
2023-04-12T07:26:00.822Z,250.23
2023-04-12T07:27:00.624Z,249.84
2023-04-12T07:28:00.583Z,247.99
2023-04-12T07:29:02.800Z,247.03
2023-04-12T07:30:08.015Z,249.94
2023-04-12T07:30:59.954Z,250.02
2023-04-12T07:32:01.854Z,250.02
2023-04-12T07:33:16.191Z,244.32
2023-04-12T07:34:03.934Z,233.52
2023-04-12T07:35:01.415Z,226.38
2023-04-12T07:36:02.401Z,216.34
2023-04-12T07:37:05.649Z,206.01
2023-04-12T07:38:02.529Z,193.63
2023-04-12T07:39:00.910Z,184.99
2023-04-12T07:40:00.085Z,185.77
2023-04-12T07:41:00.082Z,185.21
2023-04-12T07:42:00.482Z,183.77
2023-04-12T07:43:00.369Z,187.80
2023-04-12T07:43:59.853Z,196.48
2023-04-12T07:44:59.803Z,200.40
2023-04-12T07:46:01.436Z,202.22
2023-04-12T07:46:59.874Z,201.13
2023-04-12T07:47:59.879Z,202.33
2023-04-12T07:48:59.654Z,203.12
2023-04-12T07:50:02.815Z,198.42
2023-04-12T07:50:59.530Z,196.49
2023-04-12T07:52:00.474Z,188.65
2023-04-12T07:52:59.414Z,187.54
2023-04-12T07:54:06.744Z,187.75
2023-04-12T07:55:06.211Z,187.56
2023-04-12T07:56:02.450Z,190.77
2023-04-12T07:57:04.161Z,190.17
2023-04-12T07:58:09.734Z,190.89
2023-04-12T07:59:01.810Z,187.35
2023-04-12T08:00:00.375Z,175.93
2023-04-12T08:01:01.052Z,174.39
2023-04-12T08:01:59.549Z,176.07
2023-04-12T08:03:00.812Z,180.24
2023-04-12T08:03:59.614Z,177.72
2023-04-12T08:04:59.424Z,183.74
2023-04-12T08:06:02.385Z,187.70
2023-04-12T08:06:59.102Z,190.95
2023-04-12T08:08:00.154Z,190.70
2023-04-12T08:08:59.038Z,188.12
2023-04-12T08:09:59.960Z,183.60
2023-04-12T08:10:59.898Z,182.04
2023-04-12T08:11:59.831Z,178.20
2023-04-12T08:12:58.917Z,175.38
2023-04-12T08:13:59.032Z,174.86
2023-04-12T08:14:59.447Z,171.62
2023-04-12T08:15:58.943Z,143.83
2023-04-12T08:16:59.647Z,139.79
2023-04-12T08:17:58.855Z,142.95
2023-04-12T08:18:59.784Z,146.18
2023-04-12T08:19:58.420Z,144.12
2023-04-12T08:20:58.913Z,131.63
2023-04-12T08:22:02.287Z,135.32
2023-04-12T08:22:59.116Z,127.60
2023-04-12T08:24:00.064Z,129.00
2023-04-12T08:24:58.167Z,136.27
2023-04-12T08:25:58.394Z,135.57
2023-04-12T08:26:58.041Z,129.13
2023-04-12T08:27:58.354Z,128.36
2023-04-12T08:28:57.923Z,118.69
2023-04-12T08:29:57.867Z,100.55
2023-04-12T08:30:57.933Z,92.55
2023-04-12T08:31:57.881Z,94.40
2023-04-12T08:32:57.711Z,85.87
2023-04-12T08:33:57.822Z,27.28
2023-04-12T08:34:59.101Z,6.91
2023-04-12T08:35:57.540Z,0.00
2023-04-12T08:36:57.425Z,0.00
2023-04-12T08:37:57.851Z,0.00
2023-04-12T08:38:57.341Z,0.00
2023-04-12T08:40:01.491Z,0.00
2023-04-12T08:41:00.107Z,0.00
2023-04-12T08:41:57.366Z,0.00
2023-04-12T08:43:02.766Z,0.00
2023-04-12T08:44:03.842Z,0.00
2023-04-12T08:45:03.279Z,0.06
2023-04-12T08:45:57.459Z,0.00
2023-04-12T08:46:57.971Z,1.52
2023-04-12T08:49:16.638Z,25.00
2023-04-12T08:50:17.916Z,25.00
2023-04-12T08:51:24.677Z,25.00
2023-04-12T08:52:21.851Z,25.00
2023-04-12T08:53:22.740Z,25.00
2023-04-12T08:54:22.853Z,25.00
2023-04-12T08:55:17.308Z,25.00
2023-04-12T08:56:18.220Z,25.00
2023-04-12T08:57:18.094Z,25.00
2023-04-12T08:58:24.021Z,25.00
2023-04-12T08:59:25.172Z,25.00
2023-04-12T09:00:23.512Z,25.00
2023-04-12T09:01:19.476Z,25.00
2023-04-12T09:02:17.070Z,25.00
2023-04-12T09:03:23.237Z,25.00
2023-04-12T09:04:18.594Z,25.00
2023-04-12T09:05:17.098Z,25.00
2023-04-12T09:06:17.139Z,25.00
2023-04-12T09:07:17.149Z,25.00
2023-04-12T09:08:20.434Z,25.00
2023-04-12T09:09:23.676Z,25.00
2023-04-12T09:10:17.064Z,25.00
2023-04-12T09:11:17.802Z,25.00
2023-04-12T09:12:17.111Z,25.00
2023-04-12T09:13:17.465Z,25.00
2023-04-12T09:14:22.466Z,25.00
2023-04-12T09:15:19.793Z,25.00
2023-04-12T09:16:20.380Z,25.00
2023-04-12T09:20:02.692Z,25.00
2023-04-12T09:21:00.014Z,25.00
2023-04-12T09:21:56.298Z,25.00
2023-04-12T09:22:56.563Z,25.00
2023-04-12T09:23:55.735Z,25.00
2023-04-12T09:24:57.188Z,25.00
2023-04-12T09:25:56.479Z,25.00
2023-04-12T09:26:56.582Z,26.41
2023-04-12T09:27:56.540Z,5.75
2023-04-12T09:28:56.560Z,38.29
2023-04-12T09:29:59.002Z,0.00
2023-04-12T09:30:56.631Z,0.00
2023-04-12T09:31:56.607Z,0.00
2023-04-12T09:32:56.559Z,14.53
2023-04-12T09:33:57.221Z,0.00
2023-04-12T09:34:56.500Z,0.00
2023-04-12T09:35:56.518Z,0.00
2023-04-12T09:36:56.491Z,0.00
2023-04-12T09:37:56.586Z,56.56
2023-04-12T09:39:04.215Z,43.71
2023-04-12T09:39:56.449Z,0.00
2023-04-12T09:40:56.409Z,0.00
2023-04-12T09:41:56.416Z,0.00
2023-04-12T09:42:56.619Z,0.00
2023-04-12T09:43:56.680Z,0.00
2023-04-12T09:44:56.549Z,0.00
2023-04-12T09:45:56.604Z,0.00
2023-04-12T09:46:59.627Z,0.00
2023-04-12T09:47:56.381Z,0.00
2023-04-12T09:48:56.246Z,0.00
2023-04-12T09:49:56.537Z,0.00
2023-04-12T09:50:57.560Z,0.00
2023-04-12T09:51:58.238Z,0.00
2023-04-12T09:52:56.374Z,0.00
2023-04-12T09:53:56.426Z,0.00
2023-04-12T09:54:56.157Z,0.00
2023-04-12T09:55:56.082Z,0.00
2023-04-12T09:56:56.061Z,0.00
2023-04-12T09:57:56.064Z,0.00
2023-04-12T09:58:56.293Z,0.00
2023-04-12T09:59:56.031Z,0.00
2023-04-12T10:00:55.957Z,0.00
2023-04-12T10:01:56.082Z,0.00
2023-04-12T10:02:56.636Z,0.00
2023-04-12T10:03:56.046Z,0.00
2023-04-12T10:04:56.885Z,0.00
2023-04-12T10:05:56.080Z,0.00
2023-04-12T10:06:55.889Z,0.00
2023-04-12T10:07:56.159Z,0.00
2023-04-12T10:08:56.064Z,11.28
2023-04-12T10:09:56.032Z,39.37
2023-04-12T10:10:55.972Z,47.45
2023-04-12T10:11:55.974Z,128.52
2023-04-12T10:12:55.995Z,53.82
2023-04-12T10:13:56.631Z,53.04
2023-04-12T10:14:56.250Z,100.26
2023-04-12T10:15:56.038Z,168.77
2023-04-12T10:16:56.963Z,214.67
2023-04-12T10:17:56.200Z,260.77
2023-04-12T10:18:56.397Z,256.31
2023-04-12T10:19:55.965Z,271.46
2023-04-12T10:20:55.926Z,282.19
2023-04-12T10:21:55.923Z,312.42
2023-04-12T10:22:55.870Z,216.18
2023-04-12T10:23:56.048Z,241.96
2023-04-12T10:24:56.054Z,234.12
2023-04-12T10:25:55.984Z,234.96
2023-04-12T10:26:56.291Z,234.81
2023-04-12T10:27:55.823Z,242.40
2023-04-12T10:28:56.139Z,228.10
2023-04-12T10:29:56.245Z,185.55
2023-04-12T10:30:56.126Z,176.84
2023-04-12T10:31:55.979Z,176.07
2023-04-12T10:32:55.929Z,192.82
2023-04-12T10:33:56.107Z,185.90
2023-04-12T10:34:55.925Z,202.39
2023-04-12T10:35:55.967Z,173.13
2023-04-12T10:36:55.897Z,158.55
2023-04-12T10:37:55.945Z,163.02
2023-04-12T10:38:56.445Z,178.84
2023-04-12T10:39:55.909Z,191.89
2023-04-12T10:40:55.921Z,190.44
2023-04-12T10:41:55.942Z,141.13
2023-04-12T10:42:56.048Z,145.67
2023-04-12T10:43:55.888Z,156.16
2023-04-12T10:44:56.571Z,198.04
2023-04-12T10:45:55.996Z,202.13
2023-04-12T10:46:55.884Z,131.37
2023-04-12T10:47:56.252Z,122.62
2023-04-12T10:48:59.780Z,104.02
2023-04-12T10:49:56.846Z,101.95
2023-04-12T10:50:55.730Z,105.81
2023-04-12T10:51:55.764Z,108.82
2023-04-12T10:52:55.658Z,157.53
2023-04-12T10:53:55.739Z,159.88
2023-04-12T10:54:55.932Z,134.01
2023-04-12T10:55:55.483Z,111.70
2023-04-12T10:56:55.478Z,92.10
2023-04-12T10:57:55.515Z,96.48
2023-04-12T10:58:55.643Z,87.54
2023-04-12T10:59:55.592Z,79.49
2023-04-12T11:00:55.762Z,213.16
2023-04-12T11:01:55.898Z,250.00
2023-04-12T11:02:56.503Z,228.07
2023-04-12T11:03:56.599Z,249.55
2023-04-12T11:04:55.871Z,289.42
2023-04-12T11:05:55.877Z,250.96
2023-04-12T11:06:57.595Z,217.29
2023-04-12T11:07:55.806Z,215.14
2023-04-12T11:08:56.932Z,161.95
2023-04-12T11:09:55.756Z,133.23
2023-04-12T11:10:55.792Z,143.14
2023-04-12T11:11:55.842Z,177.05
2023-04-12T11:12:55.850Z,114.42
2023-04-12T11:13:56.008Z,82.97
2023-04-12T11:14:55.908Z,84.66
2023-04-12T11:15:55.942Z,136.13
2023-04-12T11:16:56.035Z,200.08
2023-04-12T11:17:56.007Z,184.89
2023-04-12T11:18:56.202Z,155.69
2023-04-12T11:19:56.061Z,164.05
2023-04-12T11:20:56.011Z,211.21
2023-04-12T11:21:55.987Z,203.80
2023-04-12T11:22:56.050Z,196.39
2023-04-12T11:23:56.066Z,163.41
2023-04-12T11:24:56.115Z,113.65
2023-04-12T11:25:56.140Z,87.97
2023-04-12T11:26:56.159Z,69.12
2023-04-12T11:27:56.132Z,63.75
2023-04-12T11:28:56.406Z,104.84
2023-04-12T11:29:56.211Z,108.27
2023-04-12T11:30:56.316Z,72.09
2023-04-12T11:31:56.350Z,43.29
2023-04-12T11:32:56.308Z,50.16
2023-04-12T11:33:56.319Z,33.54
2023-04-12T11:34:56.363Z,28.36
2023-04-12T11:35:56.384Z,23.47
2023-04-12T11:36:56.404Z,25.00
2023-04-12T11:37:56.437Z,38.00
2023-04-12T11:38:56.748Z,35.55
2023-04-12T11:39:56.506Z,24.06
2023-04-12T11:40:56.564Z,47.86
2023-04-12T11:41:57.062Z,83.07
2023-04-12T11:42:56.604Z,92.41
2023-04-12T11:43:56.614Z,98.00
2023-04-12T11:45:00.163Z,85.50
2023-04-12T11:45:56.713Z,85.57
2023-04-12T11:46:57.065Z,94.79
2023-04-12T11:47:56.718Z,119.03
2023-04-12T11:48:56.941Z,169.25
2023-04-12T11:49:56.687Z,217.63
2023-04-12T11:51:07.770Z,190.82
2023-04-12T11:51:56.715Z,137.07
2023-04-12T11:52:56.692Z,109.58
2023-04-12T11:53:57.332Z,69.34
2023-04-12T11:54:56.776Z,65.52
2023-04-12T11:55:56.686Z,99.47
2023-04-12T11:56:57.063Z,105.02
2023-04-12T11:57:57.031Z,68.15
2023-04-12T11:58:56.702Z,45.19
2023-04-12T11:59:56.721Z,18.65
2023-04-12T12:00:57.077Z,17.75
2023-04-12T12:01:56.714Z,42.73
2023-04-12T12:03:57.014Z,42.10
2023-04-12T12:04:56.807Z,43.28
2023-04-12T12:05:57.488Z,43.77
2023-04-12T12:06:57.277Z,47.40
2023-04-12T12:07:56.598Z,35.45
2023-04-12T12:08:57.092Z,55.00
2023-04-12T12:09:56.570Z,87.22
2023-04-12T12:11:07.230Z,124.14
2023-04-12T12:11:56.476Z,72.36
2023-04-12T12:12:56.441Z,90.50
2023-04-12T12:13:56.570Z,77.02
2023-04-12T12:14:59.069Z,89.05
2023-04-12T12:15:56.330Z,28.85
2023-04-12T12:16:57.096Z,39.39
2023-04-12T12:17:56.290Z,36.29
2023-04-12T12:18:56.257Z,45.40
2023-04-12T12:19:56.253Z,34.39
2023-04-12T12:20:56.369Z,50.98
2023-04-12T12:21:56.596Z,76.38
2023-04-12T12:22:56.321Z,80.45
2023-04-12T12:23:57.022Z,75.16
2023-04-12T12:24:56.335Z,56.00
2023-04-12T12:26:06.038Z,64.80
2023-04-12T12:26:56.460Z,55.56
2023-04-12T12:27:56.411Z,65.60
2023-04-12T12:28:56.594Z,58.33
2023-04-12T12:29:56.444Z,63.77
2023-04-12T12:30:56.570Z,79.72
2023-04-12T12:31:56.991Z,89.66
2023-04-12T12:32:56.633Z,89.60
2023-04-12T12:33:57.398Z,75.57
2023-04-12T12:34:56.692Z,66.25
2023-04-12T12:35:56.787Z,63.19
2023-04-12T12:36:56.965Z,87.73
2023-04-12T12:37:59.227Z,83.75
2023-04-12T12:38:57.084Z,96.76
2023-04-12T12:39:57.079Z,68.46
2023-04-12T12:40:56.993Z,70.39
2023-04-12T12:41:57.060Z,86.39
2023-04-12T12:42:57.143Z,87.87
2023-04-12T12:43:57.400Z,89.32